sensor_id;sensor_type;location;lat;lon;timestamp;P1;durP1;ratioP1;P2;durP2;ratioP2
7783;SDS011;19359;51.402;6.778;2024-03-17T00:02:03;4.40;;;2.00;;
7783;SDS011;19359;51.402;6.778;2024-03-17T00:04:29;1.50;;;1.33;;
7783;SDS011;19359;51.402;6.778;2024-03-17T00:06:58;2.05;;;1.30;;
7783;SDS011;19359;51.402;6.778;2024-03-17T00:09:24;1.08;;;0.88;;
7783;SDS011;19359;51.402;6.778;2024-03-17T00:11:51;2.03;;;1.33;;
7783;SDS011;19359;51.402;6.778;2024-03-17T00:14:18;3.33;;;1.35;;
7783;SDS011;19359;51.402;6.778;2024-03-17T00:16:46;1.58;;;1.00;;
7783;SDS011;19359;51.402;6.778;2024-03-17T00:19:13;3.13;;;1.95;;
7783;SDS011;19359;51.402;6.778;2024-03-17T00:21:42;1.42;;;1.20;;
7783;SDS011;19359;51.402;6.778;2024-03-17T00:24:09;1.92;;;1.30;;
7783;SDS011;19359;51.402;6.778;2024-03-17T00:26:36;1.38;;;0.80;;
7783;SDS011;19359;51.402;6.778;2024-03-17T00:29:02;1.55;;;1.42;;
7783;SDS011;19359;51.402;6.778;2024-03-17T00:31:30;1.33;;;1.33;;
7783;SDS011;19359;51.402;6.778;2024-03-17T00:33:56;1.05;;;0.90;;
7783;SDS011;19359;51.402;6.778;2024-03-17T00:36:24;2.38;;;1.50;;
7783;SDS011;19359;51.402;6.778;2024-03-17T00:38:49;2.25;;;1.17;;
7783;SDS011;19359;51.402;6.778;2024-03-17T00:41:18;2.72;;;1.20;;
7783;SDS011;19359;51.402;6.778;2024-03-17T00:43:44;4.93;;;1.17;;
7783;SDS011;19359;51.402;6.778;2024-03-17T00:46:11;4.38;;;1.50;;
7783;SDS011;19359;51.402;6.778;2024-03-17T00:48:37;1.70;;;1.60;;
7783;SDS011;19359;51.402;6.778;2024-03-17T00:51:04;1.90;;;1.17;;
7783;SDS011;19359;51.402;6.778;2024-03-17T00:53:30;1.10;;;1.10;;
7783;SDS011;19359;51.402;6.778;2024-03-17T00:55:57;2.08;;;1.40;;
7783;SDS011;19359;51.402;6.778;2024-03-17T00:58:24;2.25;;;2.05;;
7783;SDS011;19359;51.402;6.778;2024-03-17T01:00:51;4.13;;;2.00;;
7783;SDS011;19359;51.402;6.778;2024-03-17T01:03:18;1.40;;;1.40;;
7783;SDS011;19359;51.402;6.778;2024-03-17T01:05:45;4.15;;;1.63;;
7783;SDS011;19359;51.402;6.778;2024-03-17T01:08:12;7.35;;;1.92;;
7783;SDS011;19359;51.402;6.778;2024-03-17T01:10:40;2.13;;;1.40;;
7783;SDS011;19359;51.402;6.778;2024-03-17T01:13:07;4.68;;;1.80;;
7783;SDS011;19359;51.402;6.778;2024-03-17T01:15:36;1.75;;;1.52;;
7783;SDS011;19359;51.402;6.778;2024-03-17T01:18:02;2.80;;;1.33;;
7783;SDS011;19359;51.402;6.778;2024-03-17T01:20:30;1.88;;;1.42;;
7783;SDS011;19359;51.402;6.778;2024-03-17T01:22:57;1.73;;;1.67;;
7783;SDS011;19359;51.402;6.778;2024-03-17T01:25:26;2.35;;;1.55;;
7783;SDS011;19359;51.402;6.778;2024-03-17T01:27:52;2.78;;;2.05;;
7783;SDS011;19359;51.402;6.778;2024-03-17T01:30:19;1.10;;;1.10;;
7783;SDS011;19359;51.402;6.778;2024-03-17T01:32:46;5.05;;;1.65;;
7783;SDS011;19359;51.402;6.778;2024-03-17T01:35:16;6.97;;;1.83;;
7783;SDS011;19359;51.402;6.778;2024-03-17T01:37:43;1.40;;;1.30;;
7783;SDS011;19359;51.402;6.778;2024-03-17T01:40:10;1.77;;;1.67;;
7783;SDS011;19359;51.402;6.778;2024-03-17T01:42:37;1.08;;;1.08;;
7783;SDS011;19359;51.402;6.778;2024-03-17T01:45:13;3.33;;;1.60;;
7783;SDS011;19359;51.402;6.778;2024-03-17T01:47:52;1.92;;;1.45;;
7783;SDS011;19359;51.402;6.778;2024-03-17T01:50:19;1.40;;;1.30;;
7783;SDS011;19359;51.402;6.778;2024-03-17T01:52:50;1.27;;;1.13;;
7783;SDS011;19359;51.402;6.778;2024-03-17T01:55:18;1.75;;;1.65;;
7783;SDS011;19359;51.402;6.778;2024-03-17T01:57:47;2.45;;;1.10;;
7783;SDS011;19359;51.402;6.778;2024-03-17T02:00:15;2.58;;;2.05;;
7783;SDS011;19359;51.402;6.778;2024-03-17T02:02:41;1.30;;;1.30;;
7783;SDS011;19359;51.402;6.778;2024-03-17T02:05:10;1.70;;;1.60;;
7783;SDS011;19359;51.402;6.778;2024-03-17T02:07:36;1.30;;;1.30;;
7783;SDS011;19359;51.402;6.778;2024-03-17T02:10:03;1.55;;;1.30;;
7783;SDS011;19359;51.402;6.778;2024-03-17T02:12:30;1.65;;;1.55;;
7783;SDS011;19359;51.402;6.778;2024-03-17T02:14:58;2.13;;;2.03;;
7783;SDS011;19359;51.402;6.778;2024-03-17T02:17:24;1.38;;;1.27;;
7783;SDS011;19359;51.402;6.778;2024-03-17T02:19:52;2.03;;;1.60;;
7783;SDS011;19359;51.402;6.778;2024-03-17T02:22:19;1.77;;;1.67;;
7783;SDS011;19359;51.402;6.778;2024-03-17T02:24:46;2.30;;;1.92;;
7783;SDS011;19359;51.402;6.778;2024-03-17T02:27:12;3.08;;;1.85;;
7783;SDS011;19359;51.402;6.778;2024-03-17T02:29:39;2.70;;;2.60;;
7783;SDS011;19359;51.402;6.778;2024-03-17T02:32:05;3.15;;;2.30;;
7783;SDS011;19359;51.402;6.778;2024-03-17T02:34:33;2.92;;;2.00;;
7783;SDS011;19359;51.402;6.778;2024-03-17T02:36:59;1.35;;;1.35;;
7783;SDS011;19359;51.402;6.778;2024-03-17T02:39:28;2.47;;;2.28;;
7783;SDS011;19359;51.402;6.778;2024-03-17T02:41:59;1.77;;;1.67;;
7783;SDS011;19359;51.402;6.778;2024-03-17T02:44:26;7.07;;;1.75;;
7783;SDS011;19359;51.402;6.778;2024-03-17T02:46:52;1.88;;;1.77;;
7783;SDS011;19359;51.402;6.778;2024-03-17T02:49:19;2.70;;;1.98;;
7783;SDS011;19359;51.402;6.778;2024-03-17T02:51:45;8.90;;;1.50;;
7783;SDS011;19359;51.402;6.778;2024-03-17T02:54:12;2.42;;;1.58;;
7783;SDS011;19359;51.402;6.778;2024-03-17T02:56:40;1.58;;;1.48;;
7783;SDS011;19359;51.402;6.778;2024-03-17T02:59:07;2.53;;;1.30;;
7783;SDS011;19359;51.402;6.778;2024-03-17T03:01:34;1.55;;;1.45;;
7783;SDS011;19359;51.402;6.778;2024-03-17T03:04:01;1.60;;;1.50;;
7783;SDS011;19359;51.402;6.778;2024-03-17T03:06:28;1.38;;;1.38;;
7783;SDS011;19359;51.402;6.778;2024-03-17T03:08:55;3.03;;;2.38;;
7783;SDS011;19359;51.402;6.778;2024-03-17T03:11:22;1.00;;;1.00;;
7783;SDS011;19359;51.402;6.778;2024-03-17T03:13:50;2.75;;;1.67;;
7783;SDS011;19359;51.402;6.778;2024-03-17T03:16:17;2.45;;;1.55;;
7783;SDS011;19359;51.402;6.778;2024-03-17T03:18:44;1.70;;;1.60;;
7783;SDS011;19359;51.402;6.778;2024-03-17T03:21:11;3.50;;;1.58;;
7783;SDS011;19359;51.402;6.778;2024-03-17T03:23:38;1.95;;;1.83;;
7783;SDS011;19359;51.402;6.778;2024-03-17T03:26:05;1.95;;;1.85;;
7783;SDS011;19359;51.402;6.778;2024-03-17T03:28:34;28.20;;;25.85;;
7783;SDS011;19359;51.402;6.778;2024-03-17T03:31:03;57.22;;;47.10;;
7783;SDS011;19359;51.402;6.778;2024-03-17T03:33:32;45.28;;;40.33;;
7783;SDS011;19359;51.402;6.778;2024-03-17T03:35:59;27.73;;;25.83;;
7783;SDS011;19359;51.402;6.778;2024-03-17T03:38:33;6.25;;;5.95;;
7783;SDS011;19359;51.402;6.778;2024-03-17T03:41:05;19.85;;;18.10;;
7783;SDS011;19359;51.402;6.778;2024-03-17T03:43:32;36.20;;;32.80;;
7783;SDS011;19359;51.402;6.778;2024-03-17T03:45:59;22.65;;;21.42;;
7783;SDS011;19359;51.402;6.778;2024-03-17T03:48:29;28.48;;;26.20;;
7783;SDS011;19359;51.402;6.778;2024-03-17T03:50:57;15.85;;;15.05;;
7783;SDS011;19359;51.402;6.778;2024-03-17T03:53:24;5.63;;;5.50;;
7783;SDS011;19359;51.402;6.778;2024-03-17T03:55:51;24.95;;;23.10;;
7783;SDS011;19359;51.402;6.778;2024-03-17T03:58:18;20.83;;;19.45;;
7783;SDS011;19359;51.402;6.778;2024-03-17T04:00:45;43.65;;;38.85;;
7783;SDS011;19359;51.402;6.778;2024-03-17T04:03:12;33.75;;;30.88;;
7783;SDS011;19359;51.402;6.778;2024-03-17T04:05:41;1.65;;;1.65;;
7783;SDS011;19359;51.402;6.778;2024-03-17T04:08:09;22.00;;;19.75;;
7783;SDS011;19359;51.402;6.778;2024-03-17T04:10:36;3.22;;;1.60;;
7783;SDS011;19359;51.402;6.778;2024-03-17T04:13:03;4.25;;;1.27;;
7783;SDS011;19359;51.402;6.778;2024-03-17T04:15:30;2.17;;;2.08;;
7783;SDS011;19359;51.402;6.778;2024-03-17T04:17:57;46.30;;;32.80;;
7783;SDS011;19359;51.402;6.778;2024-03-17T04:20:23;49.75;;;37.67;;
7783;SDS011;19359;51.402;6.778;2024-03-17T04:22:52;34.70;;;31.10;;
7783;SDS011;19359;51.402;6.778;2024-03-17T04:25:19;60.80;;;43.38;;
7783;SDS011;19359;51.402;6.778;2024-03-17T04:27:46;55.38;;;45.28;;
7783;SDS011;19359;51.402;6.778;2024-03-17T04:30:16;39.92;;;35.85;;
7783;SDS011;19359;51.402;6.778;2024-03-17T04:32:43;31.80;;;28.75;;
7783;SDS011;19359;51.402;6.778;2024-03-17T04:35:10;17.48;;;16.67;;
7783;SDS011;19359;51.402;6.778;2024-03-17T04:37:37;14.98;;;13.40;;
7783;SDS011;19359;51.402;6.778;2024-03-17T04:40:07;4.65;;;4.20;;
7783;SDS011;19359;51.402;6.778;2024-03-17T04:42:38;2.95;;;2.58;;
7783;SDS011;19359;51.402;6.778;2024-03-17T04:45:06;3.13;;;2.97;;
7783;SDS011;19359;51.402;6.778;2024-03-17T04:47:36;8.98;;;1.92;;
7783;SDS011;19359;51.402;6.778;2024-03-17T04:50:04;6.93;;;1.92;;
7783;SDS011;19359;51.402;6.778;2024-03-17T04:52:32;6.15;;;2.55;;
7783;SDS011;19359;51.402;6.778;2024-03-17T04:54:59;3.00;;;2.28;;
7783;SDS011;19359;51.402;6.778;2024-03-17T04:57:27;2.20;;;1.98;;
7783;SDS011;19359;51.402;6.778;2024-03-17T04:59:54;2.00;;;1.83;;
7783;SDS011;19359;51.402;6.778;2024-03-17T05:02:21;5.40;;;2.70;;
7783;SDS011;19359;51.402;6.778;2024-03-17T05:04:48;3.28;;;2.55;;
7783;SDS011;19359;51.402;6.778;2024-03-17T05:07:15;3.03;;;1.90;;
7783;SDS011;19359;51.402;6.778;2024-03-17T05:09:42;3.88;;;2.30;;
7783;SDS011;19359;51.402;6.778;2024-03-17T05:12:09;3.92;;;2.72;;
7783;SDS011;19359;51.402;6.778;2024-03-17T05:14:38;2.25;;;2.05;;
7783;SDS011;19359;51.402;6.778;2024-03-17T05:17:06;3.92;;;2.80;;
7783;SDS011;19359;51.402;6.778;2024-03-17T05:19:33;4.25;;;2.58;;
7783;SDS011;19359;51.402;6.778;2024-03-17T05:21:59;3.13;;;1.92;;
7783;SDS011;19359;51.402;6.778;2024-03-17T05:24:26;2.40;;;2.10;;
7783;SDS011;19359;51.402;6.778;2024-03-17T05:26:53;2.67;;;2.47;;
7783;SDS011;19359;51.402;6.778;2024-03-17T05:29:20;29.23;;;2.85;;
7783;SDS011;19359;51.402;6.778;2024-03-17T05:31:49;6.72;;;2.63;;
7783;SDS011;19359;51.402;6.778;2024-03-17T05:34:21;2.13;;;2.03;;
7783;SDS011;19359;51.402;6.778;2024-03-17T05:36:49;2.80;;;2.55;;
7783;SDS011;19359;51.402;6.778;2024-03-17T05:39:16;2.97;;;2.67;;
7783;SDS011;19359;51.402;6.778;2024-03-17T05:41:43;3.40;;;2.40;;
7783;SDS011;19359;51.402;6.778;2024-03-17T05:44:13;5.00;;;3.67;;
7783;SDS011;19359;51.402;6.778;2024-03-17T05:46:40;6.55;;;2.72;;
7783;SDS011;19359;51.402;6.778;2024-03-17T05:49:08;2.45;;;2.25;;
7783;SDS011;19359;51.402;6.778;2024-03-17T05:51:36;2.85;;;2.60;;
7783;SDS011;19359;51.402;6.778;2024-03-17T05:54:03;2.63;;;2.35;;
7783;SDS011;19359;51.402;6.778;2024-03-17T05:56:30;4.00;;;2.47;;
7783;SDS011;19359;51.402;6.778;2024-03-17T05:58:57;3.40;;;3.08;;
7783;SDS011;19359;51.402;6.778;2024-03-17T06:01:23;2.80;;;2.58;;
7783;SDS011;19359;51.402;6.778;2024-03-17T06:03:50;2.72;;;2.55;;
7783;SDS011;19359;51.402;6.778;2024-03-17T06:06:18;4.78;;;3.05;;
7783;SDS011;19359;51.402;6.778;2024-03-17T06:08:45;2.53;;;2.40;;
7783;SDS011;19359;51.402;6.778;2024-03-17T06:11:12;2.85;;;2.05;;
7783;SDS011;19359;51.402;6.778;2024-03-17T06:13:39;4.65;;;2.50;;
7783;SDS011;19359;51.402;6.778;2024-03-17T06:16:06;4.10;;;2.70;;
7783;SDS011;19359;51.402;6.778;2024-03-17T06:18:34;2.97;;;2.78;;
7783;SDS011;19359;51.402;6.778;2024-03-17T06:21:04;2.67;;;2.47;;
7783;SDS011;19359;51.402;6.778;2024-03-17T06:23:33;4.68;;;2.30;;
7783;SDS011;19359;51.402;6.778;2024-03-17T06:25:59;2.60;;;2.40;;
7783;SDS011;19359;51.402;6.778;2024-03-17T06:28:30;2.90;;;2.78;;
7783;SDS011;19359;51.402;6.778;2024-03-17T06:30:57;3.78;;;3.45;;
7783;SDS011;19359;51.402;6.778;2024-03-17T06:33:26;3.13;;;2.40;;
7783;SDS011;19359;51.402;6.778;2024-03-17T06:35:54;3.35;;;2.53;;
7783;SDS011;19359;51.402;6.778;2024-03-17T06:38:21;2.72;;;2.42;;
7783;SDS011;19359;51.402;6.778;2024-03-17T06:40:50;3.92;;;2.83;;
7783;SDS011;19359;51.402;6.778;2024-03-17T06:43:18;2.60;;;2.28;;
7783;SDS011;19359;51.402;6.778;2024-03-17T06:45:53;3.42;;;2.00;;
7783;SDS011;19359;51.402;6.778;2024-03-17T06:48:21;2.05;;;1.95;;
7783;SDS011;19359;51.402;6.778;2024-03-17T06:50:48;2.90;;;2.70;;
7783;SDS011;19359;51.402;6.778;2024-03-17T06:53:17;2.93;;;2.50;;
7783;SDS011;19359;51.402;6.778;2024-03-17T06:55:50;5.43;;;2.47;;
7783;SDS011;19359;51.402;6.778;2024-03-17T06:58:19;4.55;;;2.30;;
7783;SDS011;19359;51.402;6.778;2024-03-17T07:00:51;6.70;;;2.53;;
7783;SDS011;19359;51.402;6.778;2024-03-17T07:03:19;2.58;;;2.35;;
7783;SDS011;19359;51.402;6.778;2024-03-17T07:05:50;3.50;;;1.83;;
7783;SDS011;19359;51.402;6.778;2024-03-17T07:08:20;1.50;;;1.50;;
7783;SDS011;19359;51.402;6.778;2024-03-17T07:10:58;2.17;;;1.98;;
7783;SDS011;19359;51.402;6.778;2024-03-17T07:13:28;1.85;;;1.75;;
7783;SDS011;19359;51.402;6.778;2024-03-17T07:15:56;2.50;;;2.30;;
7783;SDS011;19359;51.402;6.778;2024-03-17T07:18:24;1.77;;;1.38;;
7783;SDS011;19359;51.402;6.778;2024-03-17T07:20:52;6.53;;;1.85;;
7783;SDS011;19359;51.402;6.778;2024-03-17T07:23:19;4.72;;;2.05;;
7783;SDS011;19359;51.402;6.778;2024-03-17T07:25:52;2.13;;;1.92;;
7783;SDS011;19359;51.402;6.778;2024-03-17T07:28:21;1.35;;;1.35;;
7783;SDS011;19359;51.402;6.778;2024-03-17T07:30:48;30.55;;;28.60;;
7783;SDS011;19359;51.402;6.778;2024-03-17T07:33:16;24.05;;;22.83;;
7783;SDS011;19359;51.402;6.778;2024-03-17T07:35:46;26.25;;;24.85;;
7783;SDS011;19359;51.402;6.778;2024-03-17T07:38:14;23.15;;;21.92;;
7783;SDS011;19359;51.402;6.778;2024-03-17T07:40:41;28.73;;;27.08;;
7783;SDS011;19359;51.402;6.778;2024-03-17T07:43:08;12.95;;;12.27;;
7783;SDS011;19359;51.402;6.778;2024-03-17T07:45:36;63.00;;;57.65;;
7783;SDS011;19359;51.402;6.778;2024-03-17T07:48:03;69.35;;;63.03;;
7783;SDS011;19359;51.402;6.778;2024-03-17T07:50:31;68.82;;;62.50;;
7783;SDS011;19359;51.402;6.778;2024-03-17T07:52:59;73.57;;;66.95;;
7783;SDS011;19359;51.402;6.778;2024-03-17T07:55:27;68.93;;;63.05;;
7783;SDS011;19359;51.402;6.778;2024-03-17T07:57:55;51.15;;;47.17;;
7783;SDS011;19359;51.402;6.778;2024-03-17T08:00:22;70.90;;;64.95;;
7783;SDS011;19359;51.402;6.778;2024-03-17T08:02:50;39.90;;;37.60;;
7783;SDS011;19359;51.402;6.778;2024-03-17T08:05:17;77.78;;;71.10;;
7783;SDS011;19359;51.402;6.778;2024-03-17T08:07:44;63.00;;;57.65;;
7783;SDS011;19359;51.402;6.778;2024-03-17T08:10:11;69.72;;;63.97;;
7783;SDS011;19359;51.402;6.778;2024-03-17T08:12:38;102.80;;;92.47;;
7783;SDS011;19359;51.402;6.778;2024-03-17T08:15:05;119.47;;;104.20;;
7783;SDS011;19359;51.402;6.778;2024-03-17T08:17:32;92.18;;;83.40;;
7783;SDS011;19359;51.402;6.778;2024-03-17T08:20:00;170.75;;;131.82;;
7783;SDS011;19359;51.402;6.778;2024-03-17T08:22:27;153.23;;;129.15;;
7783;SDS011;19359;51.402;6.778;2024-03-17T08:24:54;146.55;;;124.75;;
7783;SDS011;19359;51.402;6.778;2024-03-17T08:27:20;130.25;;;116.45;;
7783;SDS011;19359;51.402;6.778;2024-03-17T08:29:48;178.55;;;142.13;;
7783;SDS011;19359;51.402;6.778;2024-03-17T08:32:14;163.82;;;136.60;;
7783;SDS011;19359;51.402;6.778;2024-03-17T08:34:45;220.15;;;167.02;;
7783;SDS011;19359;51.402;6.778;2024-03-17T08:37:14;226.45;;;170.52;;
7783;SDS011;19359;51.402;6.778;2024-03-17T08:39:41;248.02;;;183.40;;
7783;SDS011;19359;51.402;6.778;2024-03-17T08:42:07;281.55;;;198.40;;
7783;SDS011;19359;51.402;6.778;2024-03-17T08:44:34;185.20;;;160.73;;
7783;SDS011;19359;51.402;6.778;2024-03-17T08:47:01;280.77;;;203.45;;
7783;SDS011;19359;51.402;6.778;2024-03-17T08:49:28;302.98;;;209.77;;
7783;SDS011;19359;51.402;6.778;2024-03-17T08:51:55;178.65;;;157.25;;
7783;SDS011;19359;51.402;6.778;2024-03-17T08:54:23;263.65;;;202.82;;
7783;SDS011;19359;51.402;6.778;2024-03-17T08:56:49;250.77;;;196.85;;
7783;SDS011;19359;51.402;6.778;2024-03-17T08:59:16;236.27;;;194.38;;
7783;SDS011;19359;51.402;6.778;2024-03-17T09:01:43;299.58;;;219.00;;
7783;SDS011;19359;51.402;6.778;2024-03-17T09:04:09;263.00;;;205.18;;
7783;SDS011;19359;51.402;6.778;2024-03-17T09:06:37;295.40;;;211.50;;
7783;SDS011;19359;51.402;6.778;2024-03-17T09:09:04;293.60;;;226.02;;
7783;SDS011;19359;51.402;6.778;2024-03-17T09:11:33;303.58;;;230.63;;
7783;SDS011;19359;51.402;6.778;2024-03-17T09:13:59;299.00;;;218.00;;
7783;SDS011;19359;51.402;6.778;2024-03-17T09:16:27;287.95;;;211.90;;
7783;SDS011;19359;51.402;6.778;2024-03-17T09:18:55;330.45;;;235.25;;
7783;SDS011;19359;51.402;6.778;2024-03-17T09:21:22;298.10;;;223.68;;
7783;SDS011;19359;51.402;6.778;2024-03-17T09:23:49;314.85;;;230.95;;
7783;SDS011;19359;51.402;6.778;2024-03-17T09:26:16;241.52;;;198.25;;
7783;SDS011;19359;51.402;6.778;2024-03-17T09:28:44;304.58;;;235.88;;
7783;SDS011;19359;51.402;6.778;2024-03-17T09:31:11;319.23;;;238.43;;
7783;SDS011;19359;51.402;6.778;2024-03-17T09:33:38;371.77;;;256.42;;
7783;SDS011;19359;51.402;6.778;2024-03-17T09:36:05;282.80;;;225.93;;
7783;SDS011;19359;51.402;6.778;2024-03-17T09:38:33;357.17;;;252.93;;
7783;SDS011;19359;51.402;6.778;2024-03-17T09:41:01;302.45;;;236.10;;
7783;SDS011;19359;51.402;6.778;2024-03-17T09:43:28;308.80;;;245.10;;
7783;SDS011;19359;51.402;6.778;2024-03-17T09:46:01;336.83;;;258.83;;
7783;SDS011;19359;51.402;6.778;2024-03-17T09:48:28;334.27;;;260.52;;
7783;SDS011;19359;51.402;6.778;2024-03-17T09:50:56;361.95;;;267.25;;
7783;SDS011;19359;51.402;6.778;2024-03-17T09:53:24;384.55;;;269.02;;
7783;SDS011;19359;51.402;6.778;2024-03-17T09:55:52;410.30;;;288.10;;
7783;SDS011;19359;51.402;6.778;2024-03-17T09:58:22;399.45;;;264.25;;
7783;SDS011;19359;51.402;6.778;2024-03-17T10:00:49;348.80;;;264.40;;
7783;SDS011;19359;51.402;6.778;2024-03-17T10:06:10;422.08;;;279.33;;
7783;SDS011;19359;51.402;6.778;2024-03-17T10:08:41;446.85;;;279.13;;
7783;SDS011;19359;51.402;6.778;2024-03-17T10:11:08;437.42;;;295.58;;
7783;SDS011;19359;51.402;6.778;2024-03-17T10:13:36;451.65;;;289.85;;
7783;SDS011;19359;51.402;6.778;2024-03-17T10:16:02;438.70;;;303.77;;
7783;SDS011;19359;51.402;6.778;2024-03-17T10:18:30;411.42;;;300.38;;
7783;SDS011;19359;51.402;6.778;2024-03-17T10:20:58;385.10;;;282.70;;
7783;SDS011;19359;51.402;6.778;2024-03-17T10:23:26;460.17;;;300.95;;
7783;SDS011;19359;51.402;6.778;2024-03-17T10:25:53;452.85;;;308.65;;
7783;SDS011;19359;51.402;6.778;2024-03-17T10:28:20;428.85;;;289.75;;
7783;SDS011;19359;51.402;6.778;2024-03-17T10:30:57;472.05;;;307.92;;
7783;SDS011;19359;51.402;6.778;2024-03-17T10:33:24;471.23;;;309.02;;
7783;SDS011;19359;51.402;6.778;2024-03-17T10:35:59;487.13;;;308.48;;
7783;SDS011;19359;51.402;6.778;2024-03-17T10:38:26;508.52;;;324.50;;
7783;SDS011;19359;51.402;6.778;2024-03-17T10:40:53;498.75;;;322.48;;
7783;SDS011;19359;51.402;6.778;2024-03-17T10:43:20;480.55;;;325.25;;
7783;SDS011;19359;51.402;6.778;2024-03-17T10:45:51;487.55;;;343.10;;
7783;SDS011;19359;51.402;6.778;2024-03-17T10:48:19;493.70;;;332.25;;
7783;SDS011;19359;51.402;6.778;2024-03-17T10:50:47;514.42;;;340.90;;
7783;SDS011;19359;51.402;6.778;2024-03-17T10:53:18;509.83;;;346.38;;
7783;SDS011;19359;51.402;6.778;2024-03-17T10:55:51;513.55;;;350.60;;
7783;SDS011;19359;51.402;6.778;2024-03-17T10:58:28;507.27;;;349.77;;
7783;SDS011;19359;51.402;6.778;2024-03-17T11:01:00;500.02;;;343.50;;
7783;SDS011;19359;51.402;6.778;2024-03-17T11:03:29;475.10;;;366.70;;
7783;SDS011;19359;51.402;6.778;2024-03-17T11:06:01;493.17;;;367.70;;
7783;SDS011;19359;51.402;6.778;2024-03-17T11:08:32;509.90;;;374.70;;
7783;SDS011;19359;51.402;6.778;2024-03-17T11:10:59;561.60;;;374.23;;
7783;SDS011;19359;51.402;6.778;2024-03-17T11:13:26;485.90;;;386.95;;
7783;SDS011;19359;51.402;6.778;2024-03-17T11:15:54;497.02;;;377.83;;
7783;SDS011;19359;51.402;6.778;2024-03-17T11:18:33;547.50;;;375.42;;
7783;SDS011;19359;51.402;6.778;2024-03-17T11:21:07;583.65;;;385.55;;
7783;SDS011;19359;51.402;6.778;2024-03-17T11:23:58;640.15;;;389.20;;
7783;SDS011;19359;51.402;6.778;2024-03-17T11:26:26;624.83;;;395.02;;
7783;SDS011;19359;51.402;6.778;2024-03-17T11:28:54;521.45;;;415.42;;
7783;SDS011;19359;51.402;6.778;2024-03-17T11:31:35;551.47;;;411.52;;
7783;SDS011;19359;51.402;6.778;2024-03-17T11:34:06;629.15;;;413.73;;
7783;SDS011;19359;51.402;6.778;2024-03-17T11:37:00;606.47;;;430.42;;
7783;SDS011;19359;51.402;6.778;2024-03-17T11:39:48;648.42;;;440.20;;
7783;SDS011;19359;51.402;6.778;2024-03-17T11:42:20;603.08;;;437.08;;
7783;SDS011;19359;51.402;6.778;2024-03-17T11:44:55;591.58;;;433.45;;
7783;SDS011;19359;51.402;6.778;2024-03-17T11:47:23;575.38;;;434.92;;
7783;SDS011;19359;51.402;6.778;2024-03-17T11:49:59;706.42;;;459.20;;
7783;SDS011;19359;51.402;6.778;2024-03-17T11:52:29;660.83;;;453.58;;
7783;SDS011;19359;51.402;6.778;2024-03-17T11:54:56;674.45;;;458.40;;
7783;SDS011;19359;51.402;6.778;2024-03-17T11:57:23;597.67;;;456.27;;
7783;SDS011;19359;51.402;6.778;2024-03-17T11:59:50;643.20;;;464.20;;
7783;SDS011;19359;51.402;6.778;2024-03-17T12:02:20;692.67;;;470.80;;
7783;SDS011;19359;51.402;6.778;2024-03-17T12:04:47;590.80;;;467.88;;
7783;SDS011;19359;51.402;6.778;2024-03-17T12:07:15;587.75;;;486.50;;
7783;SDS011;19359;51.402;6.778;2024-03-17T12:09:42;542.95;;;486.42;;
7783;SDS011;19359;51.402;6.778;2024-03-17T12:12:13;607.70;;;484.50;;
7783;SDS011;19359;51.402;6.778;2024-03-17T12:14:42;582.20;;;487.40;;
7783;SDS011;19359;51.402;6.778;2024-03-17T12:17:10;587.00;;;485.60;;
7783;SDS011;19359;51.402;6.778;2024-03-17T12:19:36;618.03;;;482.83;;
7783;SDS011;19359;51.402;6.778;2024-03-17T12:22:04;627.28;;;482.45;;
7783;SDS011;19359;51.402;6.778;2024-03-17T12:24:31;617.72;;;493.85;;
7783;SDS011;19359;51.402;6.778;2024-03-17T12:26:59;650.55;;;493.10;;
7783;SDS011;19359;51.402;6.778;2024-03-17T12:29:30;649.90;;;503.63;;
7783;SDS011;19359;51.402;6.778;2024-03-17T12:32:01;660.70;;;500.73;;
7783;SDS011;19359;51.402;6.778;2024-03-17T12:34:29;661.15;;;505.85;;
7783;SDS011;19359;51.402;6.778;2024-03-17T12:36:57;648.55;;;525.40;;
7783;SDS011;19359;51.402;6.778;2024-03-17T12:39:24;660.08;;;525.15;;
7783;SDS011;19359;51.402;6.778;2024-03-17T12:42:02;667.53;;;523.33;;
7783;SDS011;19359;51.402;6.778;2024-03-17T12:44:31;651.88;;;524.60;;
7783;SDS011;19359;51.402;6.778;2024-03-17T12:46:59;734.75;;;510.35;;
7783;SDS011;19359;51.402;6.778;2024-03-17T12:49:26;668.08;;;533.35;;
7783;SDS011;19359;51.402;6.778;2024-03-17T12:51:53;768.33;;;509.33;;
7783;SDS011;19359;51.402;6.778;2024-03-17T12:54:21;795.75;;;499.25;;
7783;SDS011;19359;51.402;6.778;2024-03-17T12:56:49;807.63;;;509.52;;
7783;SDS011;19359;51.402;6.778;2024-03-17T12:59:42;11.60;;;11.10;;
7783;SDS011;19359;51.402;6.778;2024-03-17T13:02:26;4.57;;;4.15;;
7783;SDS011;19359;51.402;6.778;2024-03-17T13:07:48;775.78;;;532.30;;
7783;SDS011;19359;51.402;6.778;2024-03-17T13:10:16;789.63;;;521.83;;
7783;SDS011;19359;51.402;6.778;2024-03-17T13:12:43;789.33;;;521.92;;
7783;SDS011;19359;51.402;6.778;2024-03-17T13:15:13;807.60;;;495.90;;
7783;SDS011;19359;51.402;6.778;2024-03-17T13:17:41;810.17;;;486.88;;
7783;SDS011;19359;51.402;6.778;2024-03-17T13:20:08;817.25;;;490.17;;
7783;SDS011;19359;51.402;6.778;2024-03-17T13:22:40;756.33;;;508.38;;
7783;SDS011;19359;51.402;6.778;2024-03-17T13:25:12;781.40;;;504.02;;
7783;SDS011;19359;51.402;6.778;2024-03-17T13:27:41;774.72;;;494.73;;
7783;SDS011;19359;51.402;6.778;2024-03-17T13:30:08;770.92;;;511.52;;
7783;SDS011;19359;51.402;6.778;2024-03-17T13:32:37;788.10;;;505.45;;
7783;SDS011;19359;51.402;6.778;2024-03-17T13:35:04;753.15;;;501.38;;
7783;SDS011;19359;51.402;6.778;2024-03-17T13:37:33;748.45;;;493.92;;
7783;SDS011;19359;51.402;6.778;2024-03-17T13:40:00;765.25;;;487.77;;
7783;SDS011;19359;51.402;6.778;2024-03-17T13:42:29;760.20;;;492.75;;
7783;SDS011;19359;51.402;6.778;2024-03-17T13:44:56;748.95;;;489.27;;
7783;SDS011;19359;51.402;6.778;2024-03-17T13:47:23;777.03;;;486.70;;
7783;SDS011;19359;51.402;6.778;2024-03-17T13:49:51;762.08;;;478.40;;
7783;SDS011;19359;51.402;6.778;2024-03-17T13:52:18;800.22;;;473.17;;
7783;SDS011;19359;51.402;6.778;2024-03-17T13:54:44;707.92;;;488.10;;
7783;SDS011;19359;51.402;6.778;2024-03-17T13:57:11;747.90;;;487.98;;
7783;SDS011;19359;51.402;6.778;2024-03-17T13:59:38;740.65;;;481.58;;
7783;SDS011;19359;51.402;6.778;2024-03-17T14:02:05;761.58;;;467.73;;
7783;SDS011;19359;51.402;6.778;2024-03-17T14:04:37;805.10;;;463.42;;
7783;SDS011;19359;51.402;6.778;2024-03-17T14:07:05;806.05;;;457.60;;
7783;SDS011;19359;51.402;6.778;2024-03-17T14:09:32;800.35;;;454.75;;
7783;SDS011;19359;51.402;6.778;2024-03-17T14:11:59;802.53;;;461.52;;
7783;SDS011;19359;51.402;6.778;2024-03-17T14:14:26;805.88;;;458.38;;
7783;SDS011;19359;51.402;6.778;2024-03-17T14:16:52;805.78;;;464.95;;
7783;SDS011;19359;51.402;6.778;2024-03-17T14:19:19;806.72;;;458.30;;
7783;SDS011;19359;51.402;6.778;2024-03-17T14:21:46;807.67;;;453.73;;
7783;SDS011;19359;51.402;6.778;2024-03-17T14:24:14;798.15;;;450.42;;
7783;SDS011;19359;51.402;6.778;2024-03-17T14:26:41;773.83;;;462.25;;
7783;SDS011;19359;51.402;6.778;2024-03-17T14:29:08;750.30;;;464.88;;
7783;SDS011;19359;51.402;6.778;2024-03-17T14:31:34;754.97;;;459.23;;
7783;SDS011;19359;51.402;6.778;2024-03-17T14:34:02;802.45;;;447.42;;
7783;SDS011;19359;51.402;6.778;2024-03-17T14:36:30;748.88;;;456.27;;
7783;SDS011;19359;51.402;6.778;2024-03-17T14:38:58;790.10;;;443.40;;
7783;SDS011;19359;51.402;6.778;2024-03-17T14:41:28;748.35;;;456.17;;
7783;SDS011;19359;51.402;6.778;2024-03-17T14:43:55;679.30;;;465.10;;
7783;SDS011;19359;51.402;6.778;2024-03-17T14:46:23;634.20;;;469.27;;
7783;SDS011;19359;51.402;6.778;2024-03-17T14:48:49;684.55;;;461.20;;